»·PEaware :: UPS960 KSDF-KMHR

UPS960 :: KSDF-KMHR

FLIGHT INFORMATION

Flight Status: Arrived
Operator:
United Parcel Service
More flights by this operator :: More flights under this callsign
Pilot: Timothy L. (25392)
Aircraft: BOEING 767-300
(B763)
More flights by this aircraft type
Origin: KSDF Louisville Intl-Standiford
United States
Destination: KMHR Mather
United States
More flights between these airports :: More routes between these airports
Route: SDWST1 ELIOE MCI JNC KU54Q ADWAT AMRVR2
File this flight plan on PilotEdge
Remarks:
Altitude:
(Current/Filed)
36,000ft
Speed:
(Current/Filed)
464kts
Departed: 14-Sep-19 12:19 PM
Arrived: 14-Sep-19 04:18 PM
Distance/Time
Traveled:
1663nm/3:59
Distance/Time
To Go:
Arrived

Flight Plot

Page will automatically refresh every two minutes.

Flight plan parsing failed; only flown route is shown


Map Options




Map Legend


Flown Route
Filed Route
Departure Airport
Arrival Airport
Navaid (VOR, NDB)
Fix

Horizontal Profiles

Position Reports

Time Latitude Longitude Heading Altitude Ground
Speed
14-Sep-19 11:52 38.172353 -85.736694 200 483ft 0kts
14-Sep-19 11:53 38.172353 -85.736694 200 483ft 0kts
14-Sep-19 11:54 38.172353 -85.736694 200 483ft 0kts
14-Sep-19 11:55 38.172353 -85.736694 200 483ft 0kts
14-Sep-19 11:56 38.172353 -85.736694 200 483ft 0kts
14-Sep-19 11:57 38.172353 -85.736694 200 483ft 0kts
14-Sep-19 11:58 38.172353 -85.736694 200 483ft 0kts
14-Sep-19 11:59 38.172353 -85.736694 200 483ft 0kts
14-Sep-19 12:00 38.172353 -85.736694 200 483ft 0kts
14-Sep-19 12:01 38.172353 -85.736694 200 483ft 0kts
14-Sep-19 12:02 38.172353 -85.736694 200 483ft 0kts
14-Sep-19 12:03 38.172353 -85.736694 200 483ft 0kts
14-Sep-19 12:04 38.172353 -85.736694 200 483ft 0kts
14-Sep-19 12:05 38.172353 -85.736694 200 483ft 0kts
14-Sep-19 12:06 38.172353 -85.736694 200 483ft 0kts
14-Sep-19 12:07 38.172353 -85.736694 200 483ft 0kts
14-Sep-19 12:08 38.172353 -85.736694 200 483ft 0kts
14-Sep-19 12:09 38.172702 -85.736823 120 483ft 2kts
14-Sep-19 12:10 38.172996 -85.737434 182 483ft 2kts
14-Sep-19 12:11 38.173204 -85.737197 261 483ft 0kts
14-Sep-19 12:12 38.173204 -85.737197 261 483ft 0kts
14-Sep-19 12:13 38.173397 -85.738157 289 483ft 15kts
14-Sep-19 12:14 38.173746 -85.741794 167 483ft 12kts
14-Sep-19 12:15 38.168820 -85.740183 164 483ft 17kts
14-Sep-19 12:16 38.163681 -85.739465 164 483ft 18kts
14-Sep-19 12:17 38.158536 -85.738183 233 483ft 11kts
14-Sep-19 12:18 38.163305 -85.740961 346 483ft 82kts
14-Sep-19 12:19 38.203089 -85.754000 346 1255ft 170kts
14-Sep-19 12:20 38.236293 -85.791750 259 2238ft 220kts
14-Sep-19 12:21 38.235551 -85.877222 279 4303ft 253kts
14-Sep-19 12:23 38.246334 -85.964881 282 7207ft 251kts
14-Sep-19 12:24 38.258105 -86.052577 282 9819ft 256kts
14-Sep-19 12:25 38.271438 -86.151750 280 10990ft 318kts
14-Sep-19 12:26 38.286916 -86.267969 279 13427ft 340kts
14-Sep-19 12:27 38.302991 -86.389551 278 15988ft 352kts
14-Sep-19 12:28 38.319450 -86.515054 278 18350ft 365kts
14-Sep-19 12:29 38.336590 -86.646920 277 20630ft 375kts
14-Sep-19 12:30 38.353996 -86.782040 277 22807ft 385kts
14-Sep-19 12:31 38.371665 -86.920477 276 24878ft 395kts
14-Sep-19 12:32 38.389416 -87.060952 276 26723ft 405kts
14-Sep-19 12:33 38.407433 -87.204987 276 28409ft 415kts
14-Sep-19 12:34 38.425662 -87.352245 276 29927ft 426kts
14-Sep-19 12:35 38.444241 -87.503994 276 31354ft 435kts
14-Sep-19 12:36 38.462960 -87.658507 275 32699ft 440kts
14-Sep-19 12:37 38.481414 -87.812615 275 34153ft 435kts
14-Sep-19 12:38 38.499617 -87.964796 276 35257ft 432kts
14-Sep-19 12:39 38.522870 -88.115074 277 36125ft 429kts
14-Sep-19 12:40 38.545714 -88.264444 277 36291ft 426kts
14-Sep-19 12:41 38.568270 -88.413391 277 36289ft 426kts
14-Sep-19 12:41 38.586964 -88.537849 277 36288ft 425kts
14-Sep-19 12:43 38.612573 -88.709911 277 36296ft 424kts
14-Sep-19 12:44 38.634452 -88.858368 277 36292ft 424kts
14-Sep-19 12:44 38.652520 -88.981990 277 36281ft 422kts
14-Sep-19 12:45 38.673991 -89.130217 277 36274ft 422kts
14-Sep-19 12:47 38.698790 -89.303129 277 36272ft 422kts
14-Sep-19 12:47 38.716367 -89.426859 277 36271ft 422kts
14-Sep-19 12:48 38.737234 -89.575031 277 36270ft 422kts
14-Sep-19 12:49 38.757843 -89.722770 276 36278ft 421kts
14-Sep-19 12:50 38.778328 -89.871048 276 36277ft 421kts
14-Sep-19 12:51 38.798654 -90.019621 276 36278ft 420kts
14-Sep-19 12:52 38.818593 -90.166807 276 36269ft 418kts
14-Sep-19 12:53 38.838429 -90.314705 276 36263ft 418kts
14-Sep-19 12:54 38.858004 -90.462091 276 36262ft 418kts
14-Sep-19 12:55 38.875658 -90.609185 275 36259ft 417kts
14-Sep-19 12:56 38.892822 -90.756089 275 36269ft 417kts
14-Sep-19 12:57 38.909869 -90.903629 275 36266ft 416kts
14-Sep-19 12:58 38.926710 -91.051063 275 36261ft 415kts
14-Sep-19 12:59 38.943281 -91.197781 275 36252ft 415kts
14-Sep-19 13:00 38.959657 -91.344561 275 36248ft 415kts
14-Sep-19 13:01 38.975858 -91.491403 275 36249ft 414kts
14-Sep-19 13:02 38.991868 -91.638307 275 36244ft 414kts
14-Sep-19 13:03 39.007733 -91.785532 274 36251ft 413kts
14-Sep-19 13:04 39.023362 -91.932334 274 36251ft 414kts
14-Sep-19 13:05 39.038794 -92.079172 275 36244ft 413kts
14-Sep-19 13:06 39.054019 -92.225726 275 36237ft 414kts
14-Sep-19 13:07 39.069128 -92.373049 275 36236ft 414kts
14-Sep-19 13:08 39.083966 -92.519666 275 36234ft 414kts
14-Sep-19 13:09 39.098690 -92.666988 274 36238ft 413kts
14-Sep-19 13:10 39.113205 -92.814003 274 36239ft 414kts
14-Sep-19 13:11 39.127566 -92.961550 274 36231ft 415kts
14-Sep-19 13:12 39.141778 -93.109528 275 36193ft 415kts
14-Sep-19 13:13 39.155864 -93.258089 275 36179ft 416kts
14-Sep-19 13:14 39.169746 -93.406687 275 36178ft 416kts
14-Sep-19 13:15 39.183487 -93.555797 275 36177ft 417kts
14-Sep-19 13:16 39.196991 -93.704708 274 36185ft 417kts
14-Sep-19 13:17 39.210276 -93.853313 274 36183ft 417kts
14-Sep-19 13:18 39.223381 -94.002081 274 36155ft 417kts
14-Sep-19 13:19 39.236381 -94.151934 275 36136ft 419kts
14-Sep-19 13:20 39.249198 -94.301861 275 36134ft 419kts
14-Sep-19 13:21 39.261828 -94.451977 275 36132ft 419kts
14-Sep-19 13:22 39.274262 -94.602055 275 36131ft 419kts
14-Sep-19 13:23 39.285403 -94.750168 270 36139ft 420kts
14-Sep-19 13:24 39.288137 -94.897206 270 36128ft 420kts
14-Sep-19 13:25 39.290632 -95.045153 270 36110ft 421kts
14-Sep-19 13:26 39.292926 -95.193405 270 36109ft 421kts
14-Sep-19 13:27 39.295051 -95.343305 271 36106ft 421kts
14-Sep-19 13:28 39.296984 -95.493086 271 36106ft 423kts
14-Sep-19 13:29 39.298756 -95.645754 271 36104ft 422kts
14-Sep-19 13:30 39.300310 -95.796888 270 36111ft 422kts
14-Sep-19 13:31 39.301673 -95.948141 270 36111ft 424kts
14-Sep-19 13:32 39.302846 -96.100575 270 36100ft 425kts
14-Sep-19 13:33 39.303810 -96.252457 270 36081ft 425kts
14-Sep-19 13:34 39.304573 -96.405187 271 36079ft 425kts
14-Sep-19 13:35 39.305137 -96.557062 271 36078ft 426kts
14-Sep-19 13:36 39.305497 -96.709454 270 36085ft 426kts
14-Sep-19 13:37 39.305665 -96.862665 270 36083ft 426kts
14-Sep-19 13:38 39.305631 -97.015889 270 36077ft 426kts
14-Sep-19 13:39 39.305393 -97.169412 270 36052ft 426kts
14-Sep-19 13:40 39.304956 -97.323594 270 36043ft 428kts
14-Sep-19 13:41 39.304313 -97.477327 271 36042ft 428kts
14-Sep-19 13:42 39.303469 -97.631814 271 36041ft 429kts
14-Sep-19 13:43 39.302413 -97.786671 270 36047ft 429kts
14-Sep-19 13:44 39.301161 -97.940836 270 36047ft 429kts
14-Sep-19 13:45 39.299698 -98.095718 270 36052ft 431kts
14-Sep-19 13:46 39.298026 -98.251008 270 36053ft 431kts
14-Sep-19 13:47 39.296151 -98.406054 270 36052ft 431kts
14-Sep-19 13:48 39.294070 -98.561052 270 36051ft 431kts
14-Sep-19 13:49 39.291814 -98.713991 270 36057ft 431kts
14-Sep-19 13:50 39.289319 -98.869252 270 36056ft 432kts
14-Sep-19 13:51 39.286611 -99.024850 270 36060ft 432kts
14-Sep-19 13:52 39.283700 -99.180363 269 36063ft 432kts
14-Sep-19 13:53 39.280571 -99.336337 269 36062ft 433kts
14-Sep-19 13:54 39.277228 -99.492478 269 36061ft 434kts
14-Sep-19 13:55 39.273682 -99.648617 269 36061ft 435kts
14-Sep-19 13:56 39.269899 -99.805474 269 36066ft 436kts
14-Sep-19 13:57 39.265930 -99.961679 269 36080ft 436kts
14-Sep-19 13:58 39.261714 -100.119323 269 36101ft 438kts
14-Sep-19 13:59 39.263534 -100.275960 277 36105ft 435kts
14-Sep-19 14:00 39.278027 -100.431822 277 36098ft 435kts
14-Sep-19 14:01 39.292365 -100.587767 277 36097ft 435kts
14-Sep-19 14:02 39.306470 -100.743461 277 36102ft 435kts
14-Sep-19 14:03 39.320355 -100.899046 276 36113ft 435kts
14-Sep-19 14:04 39.334027 -101.054593 276 36135ft 435kts
14-Sep-19 14:05 39.347533 -101.210659 276 36137ft 436kts
14-Sep-19 14:06 39.360862 -101.367200 276 36135ft 437kts
14-Sep-19 14:07 39.373953 -101.523416 276 36132ft 437kts
14-Sep-19 14:08 39.386901 -101.680534 276 36139ft 439kts
14-Sep-19 14:09 39.394331 -101.839042 273 36137ft 440kts
14-Sep-19 14:10 39.401057 -101.997471 273 36137ft 440kts
14-Sep-19 14:11 39.407589 -102.155929 273 36161ft 440kts
14-Sep-19 14:12 39.413898 -102.314160 273 36181ft 440kts
14-Sep-19 14:13 39.419986 -102.472276 273 36171ft 440kts
14-Sep-19 14:14 39.425853 -102.630196 273 36171ft 439kts
14-Sep-19 14:15 39.431500 -102.788019 272 36175ft 439kts
14-Sep-19 14:16 39.436948 -102.946265 272 36174ft 439kts
14-Sep-19 14:17 39.442166 -103.104040 272 36202ft 440kts
14-Sep-19 14:18 39.447185 -103.262250 272 36229ft 440kts
14-Sep-19 14:19 39.451996 -103.420794 272 36227ft 441kts
14-Sep-19 14:20 39.456620 -103.580309 272 36224ft 442kts
14-Sep-19 14:21 39.461038 -103.740290 272 36230ft 444kts
14-Sep-19 14:22 39.465226 -103.899848 272 36229ft 445kts
14-Sep-19 14:23 39.469213 -104.059990 272 36274ft 446kts
14-Sep-19 14:24 39.472986 -104.220708 272 36318ft 444kts
14-Sep-19 14:25 39.476522 -104.380550 272 36318ft 445kts
14-Sep-19 14:26 39.479834 -104.540154 272 36318ft 443kts
14-Sep-19 14:27 39.482927 -104.699700 271 36322ft 442kts
14-Sep-19 14:28 39.485806 -104.859533 271 36320ft 442kts
14-Sep-19 14:29 39.488456 -105.018717 271 36484ft 441kts
14-Sep-19 14:30 39.490879 -105.177302 271 36658ft 442kts
14-Sep-19 14:31 39.493080 -105.335321 271 36656ft 442kts
14-Sep-19 14:32 39.495084 -105.494908 271 36658ft 443kts
14-Sep-19 14:33 39.496872 -105.654589 270 36656ft 445kts
14-Sep-19 14:34 39.498453 -105.815509 270 36659ft 446kts
14-Sep-19 14:35 39.499812 -105.976270 270 36593ft 447kts
14-Sep-19 14:36 39.502260 -106.137154 271 36520ft 447kts
14-Sep-19 14:37 39.504721 -106.297953 271 36519ft 446kts
14-Sep-19 14:38 39.506962 -106.459243 271 36519ft 446kts
14-Sep-19 14:39 39.508974 -106.620044 271 36519ft 445kts
14-Sep-19 14:40 39.510757 -106.780094 270 36522ft 445kts
14-Sep-19 14:41 39.512321 -106.940351 270 36526ft 445kts
14-Sep-19 14:43 39.513670 -107.101061 270 36530ft 446kts
14-Sep-19 14:44 39.514801 -107.261868 270 36528ft 446kts
14-Sep-19 14:45 39.515707 -107.423620 270 36528ft 448kts
14-Sep-19 14:46 39.516388 -107.585260 270 36528ft 449kts
14-Sep-19 14:47 39.516857 -107.747318 269 36530ft 450kts
14-Sep-19 14:48 39.517092 -107.909782 269 36530ft 451kts
14-Sep-19 14:49 39.517111 -108.072324 269 36469ft 453kts
14-Sep-19 14:50 39.516892 -108.235175 269 36263ft 452kts
14-Sep-19 14:51 39.516449 -108.398681 269 36227ft 452kts
14-Sep-19 14:52 39.515778 -108.562214 269 36226ft 452kts
14-Sep-19 14:53 39.514894 -108.722574 268 36228ft 452kts
14-Sep-19 14:54 39.513774 -108.885499 268 36229ft 451kts
14-Sep-19 14:55 39.512426 -109.048038 268 36268ft 452kts
14-Sep-19 14:56 39.510851 -109.210930 268 36374ft 451kts
14-Sep-19 14:57 39.509039 -109.374177 268 36382ft 452kts
14-Sep-19 14:58 39.506995 -109.538050 268 36382ft 453kts
14-Sep-19 14:59 39.504968 -109.684710 268 36386ft 454kts
14-Sep-19 15:00 39.502817 -109.827730 268 36384ft 454kts
14-Sep-19 15:00 39.500600 -109.964211 268 36374ft 455kts
14-Sep-19 15:02 39.496447 -110.155540 267 36277ft 455kts
14-Sep-19 15:03 39.492473 -110.319785 267 36264ft 455kts
14-Sep-19 15:03 39.488999 -110.456128 267 36264ft 455kts
14-Sep-19 15:05 39.483851 -110.647688 267 36264ft 454kts
14-Sep-19 15:06 39.479184 -110.811909 267 36265ft 455kts
14-Sep-19 15:06 39.475155 -110.947568 267 36260ft 454kts
14-Sep-19 15:07 39.470088 -111.111075 267 36241ft 454kts
14-Sep-19 15:09 39.463893 -111.301688 266 36237ft 454kts
14-Sep-19 15:09 39.459276 -111.437819 266 36236ft 454kts
14-Sep-19 15:10 39.453528 -111.601121 267 36236ft 455kts
14-Sep-19 15:11 39.447568 -111.763985 266 36238ft 455kts
14-Sep-19 15:12 39.441337 -111.927924 266 36225ft 455kts
14-Sep-19 15:13 39.434888 -112.091546 266 36194ft 457kts
14-Sep-19 15:14 39.428198 -112.255432 266 36191ft 456kts
14-Sep-19 15:15 39.421267 -112.419550 266 36191ft 456kts
14-Sep-19 15:16 39.414080 -112.584207 266 36191ft 457kts
14-Sep-19 15:17 39.406665 -112.748647 265 36192ft 458kts
14-Sep-19 15:18 39.399003 -112.913515 265 36192ft 458kts
14-Sep-19 15:19 39.391074 -113.078971 265 36191ft 460kts
14-Sep-19 15:20 39.382890 -113.244805 265 36192ft 462kts
14-Sep-19 15:21 39.374420 -113.411605 265 36191ft 463kts
14-Sep-19 15:22 39.365725 -113.578163 265 36191ft 464kts
14-Sep-19 15:23 39.356837 -113.743794 264 36192ft 466kts
14-Sep-19 15:24 39.347613 -113.911170 264 36191ft 466kts
14-Sep-19 15:25 39.338107 -114.079226 265 36206ft 468kts
14-Sep-19 15:26 39.328358 -114.247344 265 36243ft 467kts
14-Sep-19 15:27 39.318357 -114.415606 265 36246ft 466kts
14-Sep-19 15:28 39.308164 -114.582953 265 36246ft 466kts
14-Sep-19 15:29 39.297848 -114.748415 264 36246ft 465kts
14-Sep-19 15:30 39.287184 -114.915568 264 36247ft 465kts
14-Sep-19 15:31 39.276283 -115.082673 264 36235ft 464kts
14-Sep-19 15:32 39.265104 -115.250309 265 36218ft 465kts
14-Sep-19 15:33 39.253696 -115.417746 265 36218ft 466kts
14-Sep-19 15:34 39.242038 -115.585191 265 36219ft 467kts
14-Sep-19 15:35 39.230115 -115.752978 264 36218ft 467kts
14-Sep-19 15:36 39.217965 -115.920554 264 36219ft 467kts
14-Sep-19 15:37 39.205503 -116.088993 264 36214ft 468kts
14-Sep-19 15:38 39.192873 -116.256483 264 36211ft 467kts
14-Sep-19 15:39 39.179967 -116.424303 264 36210ft 466kts
14-Sep-19 15:40 39.166893 -116.591167 264 36210ft 465kts
14-Sep-19 15:41 39.153606 -116.757598 264 36210ft 465kts
14-Sep-19 15:42 39.140102 -116.923772 264 36209ft 464kts
14-Sep-19 15:43 39.126360 -117.089918 264 36196ft 464kts
14-Sep-19 15:44 39.112360 -117.256257 263 36191ft 465kts
14-Sep-19 15:45 39.098130 -117.422454 263 36192ft 465kts
14-Sep-19 15:46 39.083625 -117.589043 263 36192ft 465kts
14-Sep-19 15:47 39.069072 -117.753383 263 36192ft 465kts
14-Sep-19 15:48 39.054157 -117.919132 263 36162ft 464kts
14-Sep-19 15:49 39.039064 -118.084269 263 36082ft 463kts
14-Sep-19 15:50 39.023698 -118.249676 263 36073ft 463kts
14-Sep-19 15:51 39.008637 -118.409407 263 36075ft 446kts
14-Sep-19 15:52 38.991083 -118.572125 261 34826ft 470kts
14-Sep-19 15:53 38.971084 -118.735917 260 33035ft 473kts
14-Sep-19 15:54 38.950523 -118.902844 260 30756ft 477kts
14-Sep-19 15:55 38.929982 -119.067599 260 28686ft 441kts
14-Sep-19 15:56 38.910675 -119.220695 260 26640ft 423kts
14-Sep-19 15:57 38.892047 -119.366802 260 24732ft 413kts
14-Sep-19 15:58 38.873483 -119.510544 260 22881ft 402kts
14-Sep-19 15:59 38.855319 -119.649678 260 21073ft 390kts
14-Sep-19 16:00 38.837848 -119.782283 260 19362ft 380kts
14-Sep-19 16:01 38.820296 -119.914298 260 17732ft 370kts
14-Sep-19 16:02 38.803078 -120.043015 259 16081ft 362kts
14-Sep-19 16:03 38.786147 -120.168807 259 14316ft 351kts
14-Sep-19 16:04 38.772570 -120.291290 261 12665ft 342kts
14-Sep-19 16:05 38.760108 -120.412401 261 10561ft 348kts
14-Sep-19 16:06 38.748138 -120.529866 261 9417ft 303kts
14-Sep-19 16:07 38.737666 -120.633054 258 9157ft 290kts
14-Sep-19 16:08 38.709588 -120.714492 243 8390ft 285kts
14-Sep-19 16:09 38.675253 -120.805513 243 7254ft 281kts
14-Sep-19 16:10 38.643444 -120.896309 258 5917ft 280kts
14-Sep-19 16:11 38.633746 -120.994452 261 4503ft 266kts
14-Sep-19 16:12 38.625269 -121.080578 261 3166ft 235kts
14-Sep-19 16:13 38.617648 -121.157328 261 2100ft 200kts
14-Sep-19 16:14 38.600294 -121.217221 233 1358ft 162kts
14-Sep-19 16:15 38.576292 -121.258717 233 576ft 142kts
14-Sep-19 16:16 38.554916 -121.295847 233 109ft 70kts
14-Sep-19 16:17 38.549798 -121.306585 315 109ft 16kts
14-Sep-19 16:18 38.553508 -121.308836 51 109ft 16kts
14-Sep-19 16:19 38.555903 -121.304996 0 109ft 11kts

Navigation Log

Ident Type
Flight plan parsing failed, navigation log unavailable